createdAt,value
2019-04-26T00:06:30.418Z,3.07
2019-04-26T00:09:15.609Z,1.63
2019-04-26T00:15:05.597Z,2.47
2019-04-26T00:17:43.285Z,2.30
2019-04-26T00:20:12.037Z,4.17
2019-04-26T00:22:47.256Z,1.70
2019-04-26T00:25:28.226Z,1.87
2019-04-26T00:30:51.702Z,2.30
2019-04-26T00:33:19.450Z,2.47
2019-04-26T00:35:48.141Z,1.90
2019-04-26T00:38:16.081Z,1.83
2019-04-26T00:40:43.973Z,1.77
2019-04-26T00:43:34.051Z,2.60
2019-04-26T00:46:23.402Z,2.60
2019-04-26T00:48:51.635Z,1.70
2019-04-26T00:51:19.363Z,3.30
2019-04-26T00:53:46.966Z,2.80
2019-04-26T00:59:04.844Z,2.80
2019-04-26T01:01:37.194Z,2.37
2019-04-26T01:04:07.205Z,1.97
2019-04-26T01:09:30.758Z,2.40
2019-04-26T01:11:58.059Z,2.30
2019-04-26T01:14:26.170Z,3.23
2019-04-26T01:16:53.891Z,2.23
2019-04-26T01:19:42.444Z,2.40
2019-04-26T01:22:32.237Z,4.10
2019-04-26T01:25:21.247Z,3.10
2019-04-26T01:27:48.826Z,3.10
2019-04-26T01:30:18.238Z,3.80
2019-04-26T01:32:56.629Z,3.03
2019-04-26T01:35:26.314Z,2.80
2019-04-26T01:38:14.254Z,2.90
2019-04-26T01:43:59.124Z,3.20
2019-04-26T01:46:48.308Z,2.33
2019-04-26T01:49:37.307Z,2.70
2019-04-26T01:52:17.813Z,2.40
2019-04-26T01:54:45.304Z,2.47
2019-04-26T02:09:28.560Z,6.47
2019-04-26T02:11:55.491Z,3.43
2019-04-26T02:17:16.221Z,2.53
2019-04-26T02:19:43.919Z,3.23
2019-04-26T02:22:31.952Z,6.20
2019-04-26T02:24:59.394Z,3.07
2019-04-26T02:27:46.120Z,3.47
2019-04-26T02:30:13.534Z,3.70
2019-04-26T02:32:40.908Z,3.30
2019-04-26T02:35:09.301Z,2.80
2019-04-26T02:43:28.629Z,3.43
2019-04-26T02:49:28.588Z,3.77
2019-04-26T02:52:29.064Z,3.90
2019-04-26T02:55:17.783Z,2.90
2019-04-26T02:57:53.374Z,3.13
2019-04-26T03:00:20.515Z,4.30
2019-04-26T03:03:10.291Z,4.03
2019-04-26T03:06:08.833Z,3.17
2019-04-26T03:08:57.042Z,6.33
2019-04-26T03:11:45.768Z,4.60
2019-04-26T03:14:54.202Z,3.87
2019-04-26T03:24:07.539Z,4.00
2019-04-26T03:27:15.019Z,4.20
2019-04-26T03:33:53.907Z,4.17
2019-04-26T03:43:34.420Z,5.10
2019-04-26T03:46:43.209Z,4.83
2019-04-26T03:53:10.939Z,4.43
2019-04-26T03:56:03.292Z,5.33
2019-04-26T04:07:39.146Z,6.00
2019-04-26T04:10:26.153Z,6.03
2019-04-26T04:16:24.573Z,5.70
2019-04-26T04:19:14.329Z,5.90
2019-04-26T04:22:06.485Z,5.33
2019-04-26T04:24:55.870Z,6.00
2019-04-26T04:33:28.503Z,6.10
2019-04-26T04:36:09.835Z,5.60
2019-04-26T04:38:49.589Z,8.73
2019-04-26T04:45:02.857Z,7.23
2019-04-26T04:47:51.733Z,6.90
2019-04-26T04:50:52.606Z,6.80
2019-04-26T04:56:12.713Z,6.90
2019-04-26T04:58:52.914Z,9.53
2019-04-26T05:01:52.662Z,7.77
2019-04-26T05:04:32.660Z,7.93
2019-04-26T05:10:26.782Z,8.80
2019-04-26T05:13:06.902Z,9.23
2019-04-26T05:15:54.927Z,6.87
2019-04-26T05:18:56.215Z,0.60
2019-04-26T05:21:35.852Z,0.40
2019-04-26T05:24:16.310Z,0.40
2019-04-26T05:27:02.198Z,0.40
2019-04-26T05:29:42.633Z,0.50
2019-04-26T05:32:22.304Z,0.50
2019-04-26T05:35:02.349Z,0.93
2019-04-26T05:37:42.866Z,0.50
2019-04-26T05:40:22.682Z,2.20
2019-04-26T05:46:06.347Z,0.60
2019-04-26T05:48:51.879Z,0.70
2019-04-26T05:51:35.822Z,0.50
2019-04-26T05:54:38.905Z,0.70
2019-04-26T05:57:21.772Z,0.50
2019-04-26T06:06:27.111Z,0.50
2019-04-26T06:09:29.756Z,1.27
2019-04-26T06:12:15.699Z,0.50
2019-04-26T06:18:40.528Z,0.40
2019-04-26T06:21:25.807Z,0.50
2019-04-26T06:24:06.054Z,0.40
2019-04-26T06:30:14.269Z,0.60
2019-04-26T06:33:00.357Z,0.57
2019-04-26T06:38:28.568Z,0.50
2019-04-26T06:41:08.350Z,0.50
2019-04-26T06:43:52.143Z,0.53
2019-04-26T06:46:55.132Z,0.40
2019-04-26T06:49:52.452Z,0.40
2019-04-26T06:52:32.293Z,0.50
2019-04-26T06:55:17.978Z,0.40
2019-04-26T07:01:21.050Z,0.47
2019-04-26T07:04:00.744Z,0.50
2019-04-26T07:06:40.877Z,0.60
2019-04-26T07:09:20.317Z,0.40
2019-04-26T07:15:13.874Z,0.40
2019-04-26T07:17:53.523Z,0.40
2019-04-26T07:20:35.281Z,0.40
2019-04-26T07:23:20.442Z,0.93
2019-04-26T07:26:00.366Z,0.40
2019-04-26T07:28:47.239Z,0.40
2019-04-26T07:31:27.481Z,0.43
2019-04-26T07:34:09.522Z,0.50
2019-04-26T07:36:49.274Z,0.40
2019-04-26T07:42:58.044Z,0.47
2019-04-26T07:45:38.559Z,0.50
2019-04-26T07:48:18.988Z,0.50
2019-04-26T07:50:59.396Z,0.40
2019-04-26T07:53:39.420Z,0.43
2019-04-26T07:56:19.438Z,0.40
2019-04-26T07:58:59.258Z,0.60
2019-04-26T08:01:58.990Z,0.70
2019-04-26T08:04:38.898Z,0.43
2019-04-26T08:07:18.628Z,0.40
2019-04-26T08:10:04.914Z,0.50
2019-04-26T08:13:15.277Z,0.47
2019-04-26T08:19:02.723Z,0.60
2019-04-26T08:21:48.147Z,0.50
2019-04-26T08:24:28.265Z,0.50
2019-04-26T08:27:18.883Z,0.40
2019-04-26T08:29:50.946Z,0.43
2019-04-26T08:32:32.180Z,0.50
2019-04-26T08:38:26.464Z,0.60
2019-04-26T08:41:08.130Z,0.60
2019-04-26T08:46:52.513Z,0.50
2019-04-26T08:49:56.460Z,0.60
2019-04-26T08:52:37.238Z,0.70
2019-04-26T08:55:17.609Z,0.50
2019-04-26T08:57:58.714Z,0.40
2019-04-26T09:00:39.462Z,0.60
2019-04-26T09:06:00.592Z,0.40
2019-04-26T09:08:43.464Z,0.60
2019-04-26T09:11:30.002Z,0.50
2019-04-26T09:14:08.596Z,0.43
2019-04-26T09:16:50.390Z,0.57
2019-04-26T09:19:31.914Z,0.60
2019-04-26T09:22:17.983Z,0.50
2019-04-26T09:25:02.596Z,0.40
2019-04-26T09:31:28.637Z,0.43
2019-04-26T09:36:48.239Z,0.50
2019-04-26T09:39:28.617Z,0.47
2019-04-26T09:42:28.168Z,0.50
2019-04-26T09:45:08.658Z,0.50
2019-04-26T09:47:52.396Z,0.63
2019-04-26T09:50:44.261Z,0.50
2019-04-26T09:53:24.311Z,0.40
2019-04-26T09:56:04.294Z,0.50
2019-04-26T09:58:44.962Z,0.43
2019-04-26T10:01:25.971Z,0.80
2019-04-26T10:04:05.799Z,0.50
2019-04-26T10:06:45.783Z,0.50
2019-04-26T10:09:27.780Z,0.50
2019-04-26T10:18:08.119Z,0.40
2019-04-26T10:20:48.048Z,0.40
2019-04-26T10:23:28.031Z,0.60
2019-04-26T10:26:08.344Z,0.50
2019-04-26T10:28:50.682Z,0.50
2019-04-26T10:31:30.292Z,0.40
2019-04-26T10:34:11.820Z,0.40
2019-04-26T10:36:52.411Z,0.50
2019-04-26T10:39:32.458Z,0.43
2019-04-26T10:45:19.653Z,0.50
2019-04-26T10:47:59.829Z,0.70
2019-04-26T10:50:39.774Z,0.43
2019-04-26T10:56:45.751Z,0.40
2019-04-26T10:59:35.459Z,0.50
2019-04-26T11:02:17.711Z,0.43
2019-04-26T11:04:57.467Z,0.60
2019-04-26T11:07:37.195Z,0.50
2019-04-26T11:10:17.673Z,0.50
2019-04-26T11:12:57.365Z,0.67
2019-04-26T11:15:38.245Z,0.40
2019-04-26T11:18:19.938Z,0.40
2019-04-26T11:21:00.471Z,0.50
2019-04-26T11:23:41.006Z,1.50
2019-04-26T11:26:22.076Z,0.50
2019-04-26T11:29:02.140Z,0.40
2019-04-26T11:31:42.483Z,0.40
2019-04-26T11:34:23.718Z,0.63
2019-04-26T11:37:04.741Z,0.53
2019-04-26T11:39:44.753Z,0.40
2019-04-26T11:42:24.425Z,0.50
2019-04-26T11:45:06.413Z,0.40
2019-04-26T11:47:55.739Z,0.40
2019-04-26T11:50:28.609Z,0.40
2019-04-26T11:53:10.152Z,0.50
2019-04-26T11:55:50.992Z,0.57
2019-04-26T11:58:30.784Z,0.77
2019-04-26T12:01:12.693Z,0.53
2019-04-26T12:03:55.652Z,0.50
2019-04-26T12:09:47.255Z,0.40
2019-04-26T12:12:37.861Z,0.40
2019-04-26T12:15:29.718Z,0.70
2019-04-26T12:20:28.510Z,0.60
2019-04-26T12:26:42.667Z,0.50
2019-04-26T12:29:23.374Z,0.60
2019-04-26T12:32:04.051Z,0.40
2019-04-26T12:37:40.646Z,0.67
2019-04-26T12:40:20.762Z,0.50
2019-04-26T12:43:01.041Z,0.50
2019-04-26T12:48:30.338Z,0.57
2019-04-26T12:51:12.034Z,0.60
2019-04-26T12:53:52.877Z,0.50
2019-04-26T12:56:36.144Z,0.40
2019-04-26T12:59:16.415Z,0.40
2019-04-26T13:02:05.510Z,0.53
2019-04-26T13:04:40.521Z,2.30
2019-04-26T13:07:23.944Z,0.50
2019-04-26T13:10:22.371Z,0.50
2019-04-26T13:13:09.002Z,0.80
2019-04-26T13:16:08.027Z,0.40
2019-04-26T13:18:48.767Z,0.40
2019-04-26T13:21:29.041Z,0.60
2019-04-26T13:24:08.942Z,0.50
2019-04-26T13:26:50.263Z,1.63
2019-04-26T13:29:31.103Z,0.40
2019-04-26T13:35:11.338Z,0.60
2019-04-26T13:37:51.262Z,0.50
2019-04-26T13:40:34.302Z,0.50
2019-04-26T13:43:14.263Z,0.40
2019-04-26T13:46:13.674Z,0.40
2019-04-26T13:48:58.268Z,0.50
2019-04-26T13:51:39.056Z,0.43
2019-04-26T13:54:21.033Z,0.40
2019-04-26T13:57:10.149Z,0.40
2019-04-26T14:00:11.674Z,0.50
2019-04-26T14:02:56.870Z,0.40
2019-04-26T14:05:36.716Z,0.50
2019-04-26T14:08:17.686Z,0.50
2019-04-26T14:10:49.725Z,0.40
2019-04-26T14:13:20.716Z,0.40
2019-04-26T14:15:51.627Z,0.40
2019-04-26T14:18:15.857Z,0.40
2019-04-26T14:20:43.819Z,0.40
2019-04-26T14:23:20.704Z,0.50
2019-04-26T14:26:17.025Z,0.40
2019-04-26T14:28:44.432Z,0.40
2019-04-26T14:31:12.271Z,0.60
2019-04-26T14:33:40.640Z,0.50
2019-04-26T14:36:17.515Z,0.40
2019-04-26T14:38:39.868Z,0.50
2019-04-26T14:41:06.588Z,0.40
2019-04-26T14:43:41.153Z,0.50
2019-04-26T14:46:03.282Z,0.50
2019-04-26T14:48:36.065Z,0.50
2019-04-26T14:51:07.745Z,0.40
2019-04-26T14:53:32.194Z,0.40
2019-04-26T14:55:58.226Z,0.40
2019-04-26T14:58:30.319Z,0.40
2019-04-26T15:00:58.679Z,0.53
2019-04-26T15:03:55.174Z,0.43
2019-04-26T15:06:23.840Z,0.47
2019-04-26T15:08:53.083Z,0.40
2019-04-26T15:11:20.414Z,0.40
2019-04-26T15:13:47.465Z,0.40
2019-04-26T15:16:14.773Z,0.40
2019-04-26T15:18:42.709Z,0.40
2019-04-26T15:21:10.174Z,0.40
2019-04-26T15:23:37.450Z,0.40
2019-04-26T15:26:04.794Z,0.40
2019-04-26T15:28:33.156Z,0.40
2019-04-26T15:31:02.167Z,0.50
2019-04-26T15:33:29.159Z,0.40
2019-04-26T15:35:56.008Z,0.50
2019-04-26T15:38:23.896Z,0.40
2019-04-26T15:41:19.643Z,0.43
2019-04-26T15:44:05.143Z,0.40
2019-04-26T15:46:51.009Z,0.40
2019-04-26T15:49:46.945Z,0.40
2019-04-26T15:52:14.629Z,0.40
2019-04-26T15:54:42.495Z,0.40
2019-04-26T15:57:10.073Z,0.40
2019-04-26T15:59:37.494Z,3.20
2019-04-26T16:02:05.202Z,4.07
2019-04-26T16:04:32.826Z,4.13
2019-04-26T16:06:59.988Z,3.00
2019-04-26T16:09:27.511Z,2.60
2019-04-26T16:11:55.254Z,4.30
2019-04-26T16:14:26.365Z,3.83
2019-04-26T16:16:52.466Z,4.30
2019-04-26T16:19:20.181Z,4.00
2019-04-26T16:21:48.127Z,3.10
2019-04-26T16:24:16.866Z,3.03
2019-04-26T16:26:51.000Z,3.10
2019-04-26T16:29:29.016Z,2.80
2019-04-26T16:32:16.748Z,3.30
2019-04-26T16:34:47.551Z,2.90
2019-04-26T16:37:14.939Z,2.93
2019-04-26T16:39:44.577Z,3.20
2019-04-26T16:42:13.824Z,3.13
2019-04-26T16:44:44.937Z,4.03
2019-04-26T16:47:13.107Z,2.93
2019-04-26T16:49:44.130Z,1.93
2019-04-26T16:52:10.403Z,2.40
2019-04-26T16:54:38.304Z,2.60
2019-04-26T16:57:11.212Z,2.70
2019-04-26T16:59:34.556Z,2.40
2019-04-26T17:02:02.810Z,3.57
2019-04-26T17:04:36.252Z,2.40
2019-04-26T17:07:04.953Z,3.90
2019-04-26T17:09:54.512Z,3.13
2019-04-26T17:12:02.510Z,2.80
2019-04-26T17:14:30.152Z,4.13
2019-04-26T17:16:57.510Z,2.90
2019-04-26T17:19:29.706Z,3.47
2019-04-26T17:22:23.820Z,2.77
2019-04-26T17:24:55.625Z,2.83
2019-04-26T17:27:22.847Z,2.50
2019-04-26T17:29:50.209Z,2.20
2019-04-26T17:32:17.548Z,3.00
2019-04-26T17:34:45.100Z,3.30
2019-04-26T17:37:16.897Z,3.40
2019-04-26T17:39:41.742Z,4.60
2019-04-26T17:42:10.512Z,4.17
2019-04-26T17:44:37.587Z,4.30
2019-04-26T17:47:05.141Z,4.90
2019-04-26T17:49:34.569Z,4.53
2019-04-26T17:52:04.923Z,4.80
2019-04-26T17:54:46.194Z,4.23
2019-04-26T17:57:04.180Z,4.40
2019-04-26T17:59:34.672Z,4.10
2019-04-26T18:02:01.444Z,5.40
2019-04-26T18:04:36.927Z,4.93
2019-04-26T18:07:05.463Z,5.13
2019-04-26T18:09:42.953Z,5.60
2019-04-26T18:12:03.476Z,5.47
2019-04-26T18:14:30.464Z,5.60
2019-04-26T18:17:08.367Z,5.50
2019-04-26T18:19:45.703Z,5.80
2019-04-26T18:22:38.753Z,6.17
2019-04-26T18:25:11.283Z,5.40
2019-04-26T18:27:38.753Z,5.30
2019-04-26T18:30:11.550Z,5.70
2019-04-26T18:32:42.210Z,6.30
2019-04-26T18:35:09.251Z,4.53
2019-04-26T18:37:39.363Z,4.70
2019-04-26T18:40:06.043Z,5.13
2019-04-26T18:42:37.465Z,5.63
2019-04-26T18:45:05.577Z,5.30
2019-04-26T18:47:37.855Z,5.17
2019-04-26T18:50:05.871Z,4.40
2019-04-26T18:52:37.238Z,5.80
2019-04-26T18:55:29.021Z,4.27
2019-04-26T18:57:58.194Z,5.23
2019-04-26T19:00:30.563Z,5.37
2019-04-26T19:03:00.018Z,3.83
2019-04-26T19:05:30.183Z,4.60
2019-04-26T19:07:57.491Z,5.17
2019-04-26T19:10:25.714Z,5.73
2019-04-26T19:13:00.117Z,5.23
2019-04-26T19:15:43.873Z,6.17
2019-04-26T19:18:22.058Z,5.63
2019-04-26T19:21:05.494Z,5.80
2019-04-26T19:23:33.086Z,4.57
2019-04-26T19:26:01.860Z,4.73
2019-04-26T19:28:29.702Z,6.60
2019-04-26T19:30:57.399Z,5.90
2019-04-26T19:33:24.653Z,6.80
2019-04-26T19:35:52.972Z,5.93
2019-04-26T19:38:21.250Z,6.27
2019-04-26T19:40:49.239Z,6.23
2019-04-26T19:43:28.312Z,4.33
2019-04-26T19:45:55.432Z,6.20
2019-04-26T19:48:27.785Z,6.53
2019-04-26T19:50:59.307Z,7.27
2019-04-26T19:53:47.359Z,6.53
2019-04-26T19:56:24.868Z,6.27
2019-04-26T19:58:57.485Z,6.53
2019-04-26T20:01:20.935Z,5.23
2019-04-26T20:03:52.155Z,7.07
2019-04-26T20:06:19.881Z,6.83
2019-04-26T20:08:49.548Z,8.00
2019-04-26T20:11:18.945Z,7.43
2019-04-26T20:13:46.912Z,7.37
2019-04-26T20:16:14.223Z,6.37
2019-04-26T20:18:42.162Z,8.30
2019-04-26T20:21:12.641Z,8.10
2019-04-26T20:23:43.818Z,7.03
2019-04-26T20:26:09.026Z,8.97
2019-04-26T20:28:37.530Z,8.27
2019-04-26T20:31:37.660Z,8.73
2019-04-26T20:34:05.609Z,7.73
2019-04-26T20:36:40.694Z,8.30
2019-04-26T20:39:06.344Z,6.80
2019-04-26T20:41:34.271Z,8.17
2019-04-26T20:44:07.028Z,8.40
2019-04-26T20:46:34.463Z,7.90
2019-04-26T20:49:01.375Z,10.37
2019-04-26T20:51:29.576Z,7.80
2019-04-26T20:53:57.028Z,8.30
2019-04-26T20:56:24.305Z,7.53
2019-04-26T20:58:52.250Z,8.97
2019-04-26T21:01:19.637Z,9.20
2019-04-26T21:03:46.991Z,7.73
2019-04-26T21:06:14.009Z,8.50
2019-04-26T21:08:42.457Z,8.33
2019-04-26T21:11:11.184Z,10.50
2019-04-26T21:13:38.545Z,13.40
2019-04-26T21:16:10.456Z,15.17
2019-04-26T21:18:40.196Z,15.77
2019-04-26T21:21:10.454Z,15.03
2019-04-26T21:23:39.846Z,15.20
2019-04-26T21:26:16.522Z,13.90
2019-04-26T21:28:56.648Z,13.60
2019-04-26T21:31:49.251Z,16.57
2019-04-26T21:34:20.533Z,15.70
2019-04-26T21:36:58.267Z,18.47
2019-04-26T21:39:35.279Z,18.73
2019-04-26T21:42:03.554Z,19.70
2019-04-26T21:44:30.916Z,18.80
2019-04-26T21:46:58.957Z,18.83
2019-04-26T21:49:26.177Z,19.07
2019-04-26T21:51:54.493Z,17.93
2019-04-26T21:54:21.664Z,18.93
2019-04-26T21:56:49.860Z,17.60
2019-04-26T21:59:17.035Z,17.90
2019-04-26T22:01:48.208Z,16.53
2019-04-26T22:04:14.427Z,16.57
2019-04-26T22:06:42.655Z,16.80
2019-04-26T22:09:33.321Z,15.13
2019-04-26T22:12:00.439Z,14.80
2019-04-26T22:14:31.040Z,15.97
2019-04-26T22:17:05.260Z,14.93
2019-04-26T22:20:06.959Z,13.80
2019-04-26T22:22:55.410Z,14.47
2019-04-26T22:25:25.282Z,14.53
2019-04-26T22:27:53.992Z,14.57
2019-04-26T22:30:28.418Z,14.40
2019-04-26T22:32:58.339Z,13.73
2019-04-26T22:35:24.212Z,12.93
2019-04-26T22:37:51.405Z,12.10
2019-04-26T22:40:19.808Z,12.40
2019-04-26T22:42:49.632Z,12.67
2019-04-26T22:45:23.522Z,12.73
2019-04-26T22:48:11.515Z,11.97
2019-04-26T22:50:39.661Z,11.83
2019-04-26T22:53:06.819Z,11.23
2019-04-26T22:55:34.367Z,13.77
2019-04-26T22:58:03.265Z,12.90
2019-04-26T23:00:36.591Z,10.47
2019-04-26T23:03:07.157Z,12.13
2019-04-26T23:05:35.621Z,9.73
2019-04-26T23:08:03.529Z,10.90
2019-04-26T23:10:37.644Z,9.53
2019-04-26T23:13:13.910Z,9.47
2019-04-26T23:16:00.740Z,10.93
2019-04-26T23:18:59.892Z,11.53
2019-04-26T23:21:30.098Z,10.10
2019-04-26T23:23:57.783Z,10.33
2019-04-26T23:26:24.985Z,9.80
2019-04-26T23:28:53.527Z,10.07
2019-04-26T23:31:20.480Z,8.63
2019-04-26T23:33:47.723Z,11.80
2019-04-26T23:36:18.352Z,10.00
2019-04-26T23:38:44.221Z,10.20
2019-04-26T23:41:11.333Z,8.70
2019-04-26T23:43:39.300Z,9.83
2019-04-26T23:46:07.001Z,9.97
2019-04-26T23:48:34.098Z,8.77
2019-04-26T23:51:04.820Z,9.03
2019-04-26T23:53:30.674Z,9.47
2019-04-26T23:55:57.622Z,9.53
2019-04-26T23:58:24.979Z,9.10
